sensor_id;sensor_type;location;lat;lon;timestamp;pressure;altitude;pressure_sealevel;temperature;humidity
9822;BME280;4950;46.042;14.472;2023-03-18T00:01:56;98071.75;;;6.27;53.27
9822;BME280;4950;46.042;14.472;2023-03-18T00:04:24;98076.09;;;6.26;53.31
9822;BME280;4950;46.042;14.472;2023-03-18T00:06:51;98075.84;;;6.20;53.48
9822;BME280;4950;46.042;14.472;2023-03-18T00:09:19;98074.06;;;6.20;53.44
9822;BME280;4950;46.042;14.472;2023-03-18T00:11:46;98067.31;;;6.19;53.65
9822;BME280;4950;46.042;14.472;2023-03-18T00:14:13;98074.22;;;6.19;54.38
9822;BME280;4950;46.042;14.472;2023-03-18T00:16:40;98065.00;;;6.16;55.02
9822;BME280;4950;46.042;14.472;2023-03-18T00:19:07;98063.00;;;6.10;55.21
9822;BME280;4950;46.042;14.472;2023-03-18T00:21:35;98064.25;;;6.06;54.84
9822;BME280;4950;46.042;14.472;2023-03-18T00:24:02;98063.16;;;5.99;55.29
9822;BME280;4950;46.042;14.472;2023-03-18T00:26:28;98065.59;;;6.00;55.30
9822;BME280;4950;46.042;14.472;2023-03-18T00:28:56;98062.91;;;6.02;55.25
9822;BME280;4950;46.042;14.472;2023-03-18T00:31:24;98060.16;;;5.93;54.76
9822;BME280;4950;46.042;14.472;2023-03-18T00:33:52;98064.81;;;5.90;54.47
9822;BME280;4950;46.042;14.472;2023-03-18T00:36:18;98061.16;;;5.83;54.85
9822;BME280;4950;46.042;14.472;2023-03-18T00:38:52;98061.59;;;5.68;56.26
9822;BME280;4950;46.042;14.472;2023-03-18T00:41:22;98071.34;;;5.65;56.37
9822;BME280;4950;46.042;14.472;2023-03-18T00:43:50;98065.66;;;5.71;56.90
9822;BME280;4950;46.042;14.472;2023-03-18T00:46:20;98066.59;;;5.70;56.99
9822;BME280;4950;46.042;14.472;2023-03-18T00:48:49;98057.25;;;5.69;57.25
9822;BME280;4950;46.042;14.472;2023-03-18T00:51:17;98057.66;;;5.64;57.81
9822;BME280;4950;46.042;14.472;2023-03-18T00:53:46;98058.38;;;5.57;57.85
9822;BME280;4950;46.042;14.472;2023-03-18T00:56:16;98056.06;;;5.53;57.67
9822;BME280;4950;46.042;14.472;2023-03-18T00:58:43;98062.56;;;5.58;57.58
9822;BME280;4950;46.042;14.472;2023-03-18T01:01:11;98050.22;;;5.61;56.82
9822;BME280;4950;46.042;14.472;2023-03-18T01:03:39;98054.28;;;5.54;56.93
9822;BME280;4950;46.042;14.472;2023-03-18T01:06:08;98054.41;;;5.52;57.16
9822;BME280;4950;46.042;14.472;2023-03-18T01:08:36;98049.44;;;5.41;57.04
9822;BME280;4950;46.042;14.472;2023-03-18T01:11:03;98047.25;;;5.37;57.28
9822;BME280;4950;46.042;14.472;2023-03-18T01:13:32;98041.56;;;5.33;57.47
9822;BME280;4950;46.042;14.472;2023-03-18T01:15:59;98043.19;;;5.34;57.75
9822;BME280;4950;46.042;14.472;2023-03-18T01:18:26;98045.50;;;5.37;57.87
9822;BME280;4950;46.042;14.472;2023-03-18T01:20:54;98045.34;;;5.39;58.07
9822;BME280;4950;46.042;14.472;2023-03-18T01:23:21;98037.09;;;5.35;58.21
9822;BME280;4950;46.042;14.472;2023-03-18T01:25:48;98034.81;;;5.32;58.41
9822;BME280;4950;46.042;14.472;2023-03-18T01:28:15;98033.16;;;5.31;58.78
9822;BME280;4950;46.042;14.472;2023-03-18T01:30:43;98030.75;;;5.20;58.81
9822;BME280;4950;46.042;14.472;2023-03-18T01:33:10;98028.19;;;5.20;59.16
9822;BME280;4950;46.042;14.472;2023-03-18T01:35:37;98029.13;;;5.28;59.00
9822;BME280;4950;46.042;14.472;2023-03-18T01:38:05;98025.88;;;5.26;58.98
9822;BME280;4950;46.042;14.472;2023-03-18T01:40:34;98024.78;;;5.19;58.90
9822;BME280;4950;46.042;14.472;2023-03-18T01:43:04;98020.72;;;5.17;58.54
9822;BME280;4950;46.042;14.472;2023-03-18T01:45:38;98020.97;;;5.13;58.80
9822;BME280;4950;46.042;14.472;2023-03-18T01:48:09;98021.28;;;5.10;59.14
9822;BME280;4950;46.042;14.472;2023-03-18T01:50:40;98022.19;;;5.09;58.87
9822;BME280;4950;46.042;14.472;2023-03-18T01:53:09;98018.41;;;5.04;58.61
9822;BME280;4950;46.042;14.472;2023-03-18T01:55:38;98021.28;;;5.01;59.07
9822;BME280;4950;46.042;14.472;2023-03-18T01:58:11;98024.94;;;4.98;58.88
9822;BME280;4950;46.042;14.472;2023-03-18T02:00:43;98017.47;;;4.95;59.25
9822;BME280;4950;46.042;14.472;2023-03-18T02:03:11;98026.41;;;4.91;59.43
9822;BME280;4950;46.042;14.472;2023-03-18T02:05:39;98026.00;;;4.86;59.74
9822;BME280;4950;46.042;14.472;2023-03-18T02:08:07;98016.38;;;4.78;59.57
9822;BME280;4950;46.042;14.472;2023-03-18T02:10:34;98014.63;;;4.79;59.80
9822;BME280;4950;46.042;14.472;2023-03-18T02:13:04;98017.47;;;4.85;59.64
9822;BME280;4950;46.042;14.472;2023-03-18T02:15:33;98013.41;;;4.83;59.79
9822;BME280;4950;46.042;14.472;2023-03-18T02:18:03;98007.06;;;4.77;60.08
9822;BME280;4950;46.042;14.472;2023-03-18T02:20:52;98009.06;;;4.73;60.42
9822;BME280;4950;46.042;14.472;2023-03-18T02:23:27;98015.69;;;4.76;60.15
9822;BME280;4950;46.042;14.472;2023-03-18T02:26:01;98007.44;;;4.72;60.32
9822;BME280;4950;46.042;14.472;2023-03-18T02:28:30;98004.19;;;4.70;60.75
9822;BME280;4950;46.042;14.472;2023-03-18T02:31:01;98001.63;;;4.70;60.33
9822;BME280;4950;46.042;14.472;2023-03-18T02:33:31;98005.28;;;4.68;60.29
9822;BME280;4950;46.042;14.472;2023-03-18T02:36:03;97999.56;;;4.64;60.20
9822;BME280;4950;46.042;14.472;2023-03-18T02:38:30;97998.75;;;4.44;60.88
9822;BME280;4950;46.042;14.472;2023-03-18T02:40:57;98006.19;;;4.38;61.15
9822;BME280;4950;46.042;14.472;2023-03-18T02:43:26;97996.41;;;4.41;60.63
9822;BME280;4950;46.042;14.472;2023-03-18T02:46:04;98000.63;;;4.42;60.45
9822;BME280;4950;46.042;14.472;2023-03-18T02:48:36;98003.59;;;4.28;61.37
9822;BME280;4950;46.042;14.472;2023-03-18T02:51:04;98010.06;;;4.22;61.82
9822;BME280;4950;46.042;14.472;2023-03-18T02:53:31;97998.78;;;4.13;62.54
9822;BME280;4950;46.042;14.472;2023-03-18T02:55:58;98004.88;;;4.12;62.21
9822;BME280;4950;46.042;14.472;2023-03-18T02:58:26;98000.72;;;4.21;62.46
9822;BME280;4950;46.042;14.472;2023-03-18T03:00:52;98001.25;;;4.25;61.98
9822;BME280;4950;46.042;14.472;2023-03-18T03:03:21;97996.78;;;4.17;63.10
9822;BME280;4950;46.042;14.472;2023-03-18T03:05:48;97999.09;;;4.20;62.90
9822;BME280;4950;46.042;14.472;2023-03-18T03:08:14;97998.56;;;4.26;63.29
9822;BME280;4950;46.042;14.472;2023-03-18T03:10:44;98000.03;;;4.19;63.71
9822;BME280;4950;46.042;14.472;2023-03-18T03:13:11;97993.13;;;4.20;63.86
9822;BME280;4950;46.042;14.472;2023-03-18T03:15:38;97993.97;;;4.20;63.93
9822;BME280;4950;46.042;14.472;2023-03-18T03:18:06;97998.13;;;4.21;63.50
9822;BME280;4950;46.042;14.472;2023-03-18T03:20:34;97998.22;;;4.10;64.48
9822;BME280;4950;46.042;14.472;2023-03-18T03:23:03;98000.94;;;4.08;64.50
9822;BME280;4950;46.042;14.472;2023-03-18T03:25:30;97997.81;;;4.05;64.65
9822;BME280;4950;46.042;14.472;2023-03-18T03:27:57;98005.13;;;4.09;64.42
9822;BME280;4950;46.042;14.472;2023-03-18T03:30:24;97997.19;;;4.12;64.31
9822;BME280;4950;46.042;14.472;2023-03-18T03:32:52;98000.69;;;4.11;64.26
9822;BME280;4950;46.042;14.472;2023-03-18T03:35:19;97999.91;;;3.90;64.81
9822;BME280;4950;46.042;14.472;2023-03-18T03:37:48;98001.00;;;3.87;65.44
9822;BME280;4950;46.042;14.472;2023-03-18T03:40:16;98003.44;;;3.89;65.17
9822;BME280;4950;46.042;14.472;2023-03-18T03:42:45;98000.47;;;3.93;64.89
9822;BME280;4950;46.042;14.472;2023-03-18T03:45:13;98003.47;;;3.99;65.53
9822;BME280;4950;46.042;14.472;2023-03-18T03:47:42;98008.19;;;3.93;66.21
9822;BME280;4950;46.042;14.472;2023-03-18T03:50:10;98006.81;;;3.89;65.98
9822;BME280;4950;46.042;14.472;2023-03-18T03:52:38;98011.69;;;3.92;65.28
9822;BME280;4950;46.042;14.472;2023-03-18T03:55:08;98013.72;;;3.89;65.09
9822;BME280;4950;46.042;14.472;2023-03-18T03:57:36;98019.09;;;3.86;65.06
9822;BME280;4950;46.042;14.472;2023-03-18T04:00:04;98014.19;;;3.83;64.91
9822;BME280;4950;46.042;14.472;2023-03-18T04:02:32;98010.84;;;3.82;64.89
9822;BME280;4950;46.042;14.472;2023-03-18T04:04:58;98005.28;;;3.77;64.71
9822;BME280;4950;46.042;14.472;2023-03-18T04:07:26;98018.38;;;3.74;64.90
9822;BME280;4950;46.042;14.472;2023-03-18T04:09:53;98015.00;;;3.73;65.15
9822;BME280;4950;46.042;14.472;2023-03-18T04:12:21;98010.91;;;3.71;65.24
9822;BME280;4950;46.042;14.472;2023-03-18T04:14:48;98018.59;;;3.71;65.34
9822;BME280;4950;46.042;14.472;2023-03-18T04:17:15;98018.47;;;3.72;65.35
9822;BME280;4950;46.042;14.472;2023-03-18T04:19:42;98018.47;;;3.72;65.47
9822;BME280;4950;46.042;14.472;2023-03-18T04:22:09;98018.75;;;3.69;65.82
9822;BME280;4950;46.042;14.472;2023-03-18T04:24:35;98023.31;;;3.66;65.91
9822;BME280;4950;46.042;14.472;2023-03-18T04:27:03;98022.19;;;3.59;66.03
9822;BME280;4950;46.042;14.472;2023-03-18T04:29:31;98020.06;;;3.64;66.23
9822;BME280;4950;46.042;14.472;2023-03-18T04:31:58;98018.69;;;3.60;66.31
9822;BME280;4950;46.042;14.472;2023-03-18T04:34:24;98017.19;;;3.57;66.52
9822;BME280;4950;46.042;14.472;2023-03-18T04:36:51;98013.00;;;3.56;66.18
9822;BME280;4950;46.042;14.472;2023-03-18T04:39:19;98017.97;;;3.48;66.61
9822;BME280;4950;46.042;14.472;2023-03-18T04:41:46;98012.94;;;3.46;66.82
9822;BME280;4950;46.042;14.472;2023-03-18T04:44:13;98016.59;;;3.44;67.09
9822;BME280;4950;46.042;14.472;2023-03-18T04:46:42;98016.31;;;3.47;67.32
9822;BME280;4950;46.042;14.472;2023-03-18T04:49:09;98019.84;;;3.46;67.31
9822;BME280;4950;46.042;14.472;2023-03-18T04:51:36;98022.41;;;3.46;67.19
9822;BME280;4950;46.042;14.472;2023-03-18T04:54:03;98021.06;;;3.51;67.11
9822;BME280;4950;46.042;14.472;2023-03-18T04:56:30;98020.13;;;3.52;66.77
9822;BME280;4950;46.042;14.472;2023-03-18T04:58:57;98020.88;;;3.43;67.12
9822;BME280;4950;46.042;14.472;2023-03-18T05:01:24;98020.66;;;3.46;67.36
9822;BME280;4950;46.042;14.472;2023-03-18T05:03:52;98027.03;;;3.52;66.81
9822;BME280;4950;46.042;14.472;2023-03-18T05:06:21;98032.91;;;3.43;67.47
9822;BME280;4950;46.042;14.472;2023-03-18T05:08:49;98029.78;;;3.39;67.46
9822;BME280;4950;46.042;14.472;2023-03-18T05:11:16;98018.94;;;3.35;67.41
9822;BME280;4950;46.042;14.472;2023-03-18T05:13:43;98029.19;;;3.35;67.77
9822;BME280;4950;46.042;14.472;2023-03-18T05:16:10;98038.78;;;3.33;67.98
9822;BME280;4950;46.042;14.472;2023-03-18T05:18:37;98037.59;;;3.38;67.81
9822;BME280;4950;46.042;14.472;2023-03-18T05:21:07;98034.94;;;3.28;68.42
9822;BME280;4950;46.042;14.472;2023-03-18T05:23:34;98030.41;;;3.31;67.73
9822;BME280;4950;46.042;14.472;2023-03-18T05:26:01;98038.16;;;3.41;67.85
9822;BME280;4950;46.042;14.472;2023-03-18T05:28:28;98038.66;;;3.35;68.00
9822;BME280;4950;46.042;14.472;2023-03-18T05:30:55;98042.19;;;3.34;68.34
9822;BME280;4950;46.042;14.472;2023-03-18T05:33:22;98032.84;;;3.33;68.10
9822;BME280;4950;46.042;14.472;2023-03-18T05:35:48;98032.84;;;3.33;68.68
9822;BME280;4950;46.042;14.472;2023-03-18T05:38:17;98039.22;;;3.39;68.78
9822;BME280;4950;46.042;14.472;2023-03-18T05:40:45;98055.88;;;3.44;68.71
9822;BME280;4950;46.042;14.472;2023-03-18T05:43:11;98047.22;;;3.45;68.70
9822;BME280;4950;46.042;14.472;2023-03-18T05:45:38;98042.94;;;3.46;68.63
9822;BME280;4950;46.042;14.472;2023-03-18T05:48:05;98042.09;;;3.45;68.80
9822;BME280;4950;46.042;14.472;2023-03-18T05:50:33;98041.53;;;3.42;68.74
9822;BME280;4950;46.042;14.472;2023-03-18T05:53:01;98055.19;;;3.42;68.89
9822;BME280;4950;46.042;14.472;2023-03-18T05:55:30;98048.22;;;3.33;69.59
9822;BME280;4950;46.042;14.472;2023-03-18T05:57:57;98042.88;;;3.36;69.79
9822;BME280;4950;46.042;14.472;2023-03-18T06:00:24;98058.00;;;3.39;69.27
9822;BME280;4950;46.042;14.472;2023-03-18T06:02:53;98048.88;;;3.46;69.60
9822;BME280;4950;46.042;14.472;2023-03-18T06:05:20;98061.81;;;3.45;69.73
9822;BME280;4950;46.042;14.472;2023-03-18T06:07:47;98053.31;;;3.44;69.89
9822;BME280;4950;46.042;14.472;2023-03-18T06:10:14;98048.88;;;3.46;69.86
9822;BME280;4950;46.042;14.472;2023-03-18T06:12:42;98058.19;;;3.47;70.25
9822;BME280;4950;46.042;14.472;2023-03-18T06:15:11;98053.50;;;3.52;69.55
9822;BME280;4950;46.042;14.472;2023-03-18T06:17:38;98051.75;;;3.53;69.67
9822;BME280;4950;46.042;14.472;2023-03-18T06:20:06;98055.56;;;3.59;70.12
9822;BME280;4950;46.042;14.472;2023-03-18T06:22:34;98052.75;;;3.62;69.77
9822;BME280;4950;46.042;14.472;2023-03-18T06:25:01;98061.72;;;3.67;69.82
9822;BME280;4950;46.042;14.472;2023-03-18T06:27:28;98046.44;;;3.66;69.83
9822;BME280;4950;46.042;14.472;2023-03-18T06:29:56;98053.84;;;3.69;69.88
9822;BME280;4950;46.042;14.472;2023-03-18T06:32:27;98049.28;;;3.72;69.57
9822;BME280;4950;46.042;14.472;2023-03-18T06:34:54;98058.06;;;3.70;69.85
9822;BME280;4950;46.042;14.472;2023-03-18T06:37:21;98054.19;;;3.75;70.16
9822;BME280;4950;46.042;14.472;2023-03-18T06:39:47;98064.63;;;3.84;70.11
9822;BME280;4950;46.042;14.472;2023-03-18T06:42:14;98065.75;;;3.91;69.72
9822;BME280;4950;46.042;14.472;2023-03-18T06:44:41;98073.47;;;3.91;69.97
9822;BME280;4950;46.042;14.472;2023-03-18T06:47:16;98067.81;;;3.97;70.11
9822;BME280;4950;46.042;14.472;2023-03-18T06:49:43;98071.50;;;4.04;70.17
9822;BME280;4950;46.042;14.472;2023-03-18T06:52:10;98069.66;;;4.16;69.88
9822;BME280;4950;46.042;14.472;2023-03-18T06:54:38;98072.13;;;4.27;69.67
9822;BME280;4950;46.042;14.472;2023-03-18T06:57:05;98077.97;;;4.39;68.44
9822;BME280;4950;46.042;14.472;2023-03-18T06:59:32;98078.97;;;4.48;67.76
9822;BME280;4950;46.042;14.472;2023-03-18T07:02:00;98078.44;;;4.54;67.34
9822;BME280;4950;46.042;14.472;2023-03-18T07:04:28;98079.69;;;4.60;67.06
9822;BME280;4950;46.042;14.472;2023-03-18T07:06:55;98080.25;;;4.63;66.94
9822;BME280;4950;46.042;14.472;2023-03-18T07:09:22;98077.00;;;4.71;66.29
9822;BME280;4950;46.042;14.472;2023-03-18T07:11:49;98079.19;;;4.75;66.36
9822;BME280;4950;46.042;14.472;2023-03-18T07:14:15;98079.31;;;4.84;66.02
9822;BME280;4950;46.042;14.472;2023-03-18T07:16:42;98083.56;;;4.94;65.31
9822;BME280;4950;46.042;14.472;2023-03-18T07:19:10;98081.66;;;5.06;64.63
9822;BME280;4950;46.042;14.472;2023-03-18T07:21:38;98082.59;;;5.15;64.29
9822;BME280;4950;46.042;14.472;2023-03-18T07:24:06;98090.34;;;5.25;64.64
9822;BME280;4950;46.042;14.472;2023-03-18T07:26:33;98078.69;;;5.30;63.74
9822;BME280;4950;46.042;14.472;2023-03-18T07:29:01;98084.63;;;5.31;64.24
9822;BME280;4950;46.042;14.472;2023-03-18T07:31:28;98086.16;;;5.43;63.52
9822;BME280;4950;46.042;14.472;2023-03-18T07:33:55;98080.03;;;5.54;63.93
9822;BME280;4950;46.042;14.472;2023-03-18T07:36:22;98074.19;;;5.62;62.99
9822;BME280;4950;46.042;14.472;2023-03-18T07:38:50;98091.09;;;5.74;62.25
9822;BME280;4950;46.042;14.472;2023-03-18T07:41:17;98085.69;;;5.87;62.28
9822;BME280;4950;46.042;14.472;2023-03-18T07:43:44;98088.09;;;6.08;60.84
9822;BME280;4950;46.042;14.472;2023-03-18T07:46:10;98089.31;;;6.13;60.36
9822;BME280;4950;46.042;14.472;2023-03-18T07:48:37;98093.50;;;6.15;59.81
9822;BME280;4950;46.042;14.472;2023-03-18T07:51:04;98087.50;;;6.24;59.73
9822;BME280;4950;46.042;14.472;2023-03-18T07:53:31;98090.97;;;6.32;59.78
9822;BME280;4950;46.042;14.472;2023-03-18T07:55:59;98088.38;;;6.42;59.27
9822;BME280;4950;46.042;14.472;2023-03-18T07:58:26;98086.22;;;6.65;58.90
9822;BME280;4950;46.042;14.472;2023-03-18T08:00:53;98077.84;;;6.81;58.00
9822;BME280;4950;46.042;14.472;2023-03-18T08:03:19;98084.72;;;6.90;57.91
9822;BME280;4950;46.042;14.472;2023-03-18T08:05:46;98084.47;;;7.11;56.66
9822;BME280;4950;46.042;14.472;2023-03-18T08:08:14;98080.75;;;7.32;56.69
9822;BME280;4950;46.042;14.472;2023-03-18T08:10:40;98076.41;;;7.50;56.65
9822;BME280;4950;46.042;14.472;2023-03-18T08:13:09;98077.31;;;7.67;56.50
9822;BME280;4950;46.042;14.472;2023-03-18T08:15:37;98079.66;;;7.79;56.15
9822;BME280;4950;46.042;14.472;2023-03-18T08:18:04;98073.75;;;7.86;56.24
9822;BME280;4950;46.042;14.472;2023-03-18T08:20:31;98076.72;;;8.00;55.67
9822;BME280;4950;46.042;14.472;2023-03-18T08:22:58;98073.63;;;8.22;54.66
9822;BME280;4950;46.042;14.472;2023-03-18T08:25:25;98080.22;;;8.43;54.30
9822;BME280;4950;46.042;14.472;2023-03-18T08:27:52;98084.47;;;8.60;54.30
9822;BME280;4950;46.042;14.472;2023-03-18T08:30:20;98076.16;;;8.83;54.36
9822;BME280;4950;46.042;14.472;2023-03-18T08:32:49;98074.59;;;9.06;53.95
9822;BME280;4950;46.042;14.472;2023-03-18T08:35:16;98071.34;;;9.29;53.54
9822;BME280;4950;46.042;14.472;2023-03-18T08:37:43;98061.66;;;9.47;52.91
9822;BME280;4950;46.042;14.472;2023-03-18T08:40:11;98066.16;;;9.70;52.24
9822;BME280;4950;46.042;14.472;2023-03-18T08:42:38;98068.09;;;9.93;51.68
9822;BME280;4950;46.042;14.472;2023-03-18T08:45:05;98064.47;;;10.18;50.68
9822;BME280;4950;46.042;14.472;2023-03-18T08:47:34;98064.22;;;10.44;49.94
9822;BME280;4950;46.042;14.472;2023-03-18T08:50:00;98055.53;;;10.69;49.94
9822;BME280;4950;46.042;14.472;2023-03-18T08:52:27;98054.09;;;10.89;49.44
9822;BME280;4950;46.042;14.472;2023-03-18T08:54:54;98058.69;;;11.10;48.97
9822;BME280;4950;46.042;14.472;2023-03-18T08:57:21;98045.41;;;11.28;48.28
9822;BME280;4950;46.042;14.472;2023-03-18T08:59:47;98047.41;;;11.41;48.15
9822;BME280;4950;46.042;14.472;2023-03-18T09:02:14;98049.16;;;11.63;47.77
9822;BME280;4950;46.042;14.472;2023-03-18T09:04:44;98042.19;;;11.79;47.48
9822;BME280;4950;46.042;14.472;2023-03-18T09:07:12;98049.25;;;12.08;46.72
9822;BME280;4950;46.042;14.472;2023-03-18T09:09:40;98037.84;;;12.24;46.06
9822;BME280;4950;46.042;14.472;2023-03-18T09:12:07;98044.81;;;12.53;45.01
9822;BME280;4950;46.042;14.472;2023-03-18T09:14:36;98036.81;;;12.70;44.75
9822;BME280;4950;46.042;14.472;2023-03-18T09:17:03;98039.19;;;12.71;44.00
9822;BME280;4950;46.042;14.472;2023-03-18T09:19:30;98044.53;;;12.63;43.49
9822;BME280;4950;46.042;14.472;2023-03-18T09:21:59;98040.03;;;12.57;44.67
9822;BME280;4950;46.042;14.472;2023-03-18T09:24:25;98040.66;;;12.74;44.99
9822;BME280;4950;46.042;14.472;2023-03-18T09:26:52;98041.50;;;12.81;44.06
9822;BME280;4950;46.042;14.472;2023-03-18T09:29:19;98037.25;;;12.95;43.43
9822;BME280;4950;46.042;14.472;2023-03-18T09:31:45;98040.72;;;13.02;44.33
9822;BME280;4950;46.042;14.472;2023-03-18T09:34:12;98028.13;;;13.27;44.05
9822;BME280;4950;46.042;14.472;2023-03-18T09:36:40;98029.34;;;13.53;43.85
9822;BME280;4950;46.042;14.472;2023-03-18T09:39:16;98032.94;;;13.73;42.81
9822;BME280;4950;46.042;14.472;2023-03-18T09:41:54;98026.63;;;13.96;43.28
9822;BME280;4950;46.042;14.472;2023-03-18T09:44:29;98015.91;;;14.12;42.36
9822;BME280;4950;46.042;14.472;2023-03-18T09:50:08;98015.59;;;14.97;41.73
9822;BME280;4950;46.042;14.472;2023-03-18T09:52:44;98005.19;;;15.37;42.29
9822;BME280;4950;46.042;14.472;2023-03-18T09:55:20;98009.78;;;15.55;39.86
9822;BME280;4950;46.042;14.472;2023-03-18T09:57:50;98002.53;;;15.77;39.70
9822;BME280;4950;46.042;14.472;2023-03-18T10:00:22;98003.88;;;16.06;40.55
9822;BME280;4950;46.042;14.472;2023-03-18T10:02:52;97999.31;;;16.47;40.94
9822;BME280;4950;46.042;14.472;2023-03-18T10:05:24;97994.66;;;16.49;42.11
9822;BME280;4950;46.042;14.472;2023-03-18T10:07:57;97991.47;;;16.78;38.87
9822;BME280;4950;46.042;14.472;2023-03-18T10:10:30;97996.81;;;16.97;41.72
9822;BME280;4950;46.042;14.472;2023-03-18T10:13:04;98000.06;;;16.99;40.18
9822;BME280;4950;46.042;14.472;2023-03-18T10:15:38;97985.44;;;17.10;39.52
9822;BME280;4950;46.042;14.472;2023-03-18T10:18:10;97981.75;;;17.43;38.08
9822;BME280;4950;46.042;14.472;2023-03-18T10:20:52;97982.50;;;17.68;38.27
9822;BME280;4950;46.042;14.472;2023-03-18T10:23:31;97984.94;;;17.88;37.18
9822;BME280;4950;46.042;14.472;2023-03-18T10:26:13;97981.59;;;18.18;35.36
9822;BME280;4950;46.042;14.472;2023-03-18T10:28:59;97975.94;;;18.51;34.28
9822;BME280;4950;46.042;14.472;2023-03-18T10:31:37;97970.63;;;18.70;33.57
9822;BME280;4950;46.042;14.472;2023-03-18T10:34:10;97972.13;;;18.78;33.89
9822;BME280;4950;46.042;14.472;2023-03-18T10:36:44;97965.63;;;18.80;33.16
9822;BME280;4950;46.042;14.472;2023-03-18T10:39:15;97962.72;;;18.70;36.46
9822;BME280;4950;46.042;14.472;2023-03-18T10:41:47;97962.59;;;18.95;33.41
9822;BME280;4950;46.042;14.472;2023-03-18T10:44:18;97951.88;;;19.20;32.56
9822;BME280;4950;46.042;14.472;2023-03-18T10:46:46;97961.47;;;19.26;34.99
9822;BME280;4950;46.042;14.472;2023-03-18T10:49:20;97956.56;;;19.42;32.46
9822;BME280;4950;46.042;14.472;2023-03-18T10:51:52;97961.38;;;19.45;33.64
9822;BME280;4950;46.042;14.472;2023-03-18T10:54:23;97956.78;;;19.28;32.63
9822;BME280;4950;46.042;14.472;2023-03-18T10:56:54;97958.28;;;19.36;32.78
9822;BME280;4950;46.042;14.472;2023-03-18T10:59:22;97952.66;;;19.44;31.83
9822;BME280;4950;46.042;14.472;2023-03-18T11:01:52;97953.38;;;19.28;31.52
9822;BME280;4950;46.042;14.472;2023-03-18T11:04:21;97960.56;;;19.56;33.25
9822;BME280;4950;46.042;14.472;2023-03-18T11:06:51;97960.22;;;19.76;30.81
9822;BME280;4950;46.042;14.472;2023-03-18T11:09:28;97955.75;;;19.18;28.63
9822;BME280;4950;46.042;14.472;2023-03-18T11:12:01;97954.94;;;19.17;30.09
9822;BME280;4950;46.042;14.472;2023-03-18T11:14:30;97946.25;;;19.28;28.74
9822;BME280;4950;46.042;14.472;2023-03-18T11:16:58;97948.53;;;19.48;28.91
9822;BME280;4950;46.042;14.472;2023-03-18T11:19:28;97954.38;;;19.27;28.07
9822;BME280;4950;46.042;14.472;2023-03-18T11:22:01;97950.81;;;19.45;27.80
9822;BME280;4950;46.042;14.472;2023-03-18T11:24:30;97934.69;;;19.18;28.23
9822;BME280;4950;46.042;14.472;2023-03-18T11:27:25;97939.25;;;18.99;29.03
9822;BME280;4950;46.042;14.472;2023-03-18T11:29:56;97943.75;;;19.22;28.79
9822;BME280;4950;46.042;14.472;2023-03-18T11:32:25;97935.72;;;19.28;28.37
9822;BME280;4950;46.042;14.472;2023-03-18T11:34:54;97940.78;;;19.42;28.88
9822;BME280;4950;46.042;14.472;2023-03-18T11:37:26;97934.38;;;19.38;28.78
9822;BME280;4950;46.042;14.472;2023-03-18T11:40:05;97935.03;;;19.45;28.28
9822;BME280;4950;46.042;14.472;2023-03-18T11:42:37;97955.72;;;19.06;27.44
9822;BME280;4950;46.042;14.472;2023-03-18T11:45:21;97941.34;;;18.78;28.43
9822;BME280;4950;46.042;14.472;2023-03-18T11:47:54;97924.69;;;18.84;28.45
9822;BME280;4950;46.042;14.472;2023-03-18T11:50:24;97946.66;;;18.90;28.89
9822;BME280;4950;46.042;14.472;2023-03-18T11:52:56;97926.22;;;19.04;28.40
9822;BME280;4950;46.042;14.472;2023-03-18T11:55:33;97931.03;;;19.07;28.38
9822;BME280;4950;46.042;14.472;2023-03-18T12:01:00;97925.00;;;18.76;28.27
9822;BME280;4950;46.042;14.472;2023-03-18T12:03:56;97916.06;;;18.65;28.32
9822;BME280;4950;46.042;14.472;2023-03-18T12:06:30;97918.28;;;18.80;28.14
9822;BME280;4950;46.042;14.472;2023-03-18T12:09:05;97920.97;;;18.62;27.67
9822;BME280;4950;46.042;14.472;2023-03-18T12:11:45;97915.84;;;18.79;28.43
9822;BME280;4950;46.042;14.472;2023-03-18T12:14:22;97917.44;;;18.68;28.12
9822;BME280;4950;46.042;14.472;2023-03-18T12:17:20;97911.03;;;18.33;28.30
9822;BME280;4950;46.042;14.472;2023-03-18T12:20:03;97908.34;;;18.40;28.99
9822;BME280;4950;46.042;14.472;2023-03-18T12:22:55;97906.63;;;18.88;28.59
9822;BME280;4950;46.042;14.472;2023-03-18T12:25:34;97914.44;;;18.64;28.05
9822;BME280;4950;46.042;14.472;2023-03-18T12:28:11;97914.66;;;18.63;30.28
9822;BME280;4950;46.042;14.472;2023-03-18T12:31:05;97904.34;;;18.91;29.03
9822;BME280;4950;46.042;14.472;2023-03-18T12:33:53;97909.41;;;19.05;28.30
9822;BME280;4950;46.042;14.472;2023-03-18T12:36:32;97899.56;;;19.00;28.53
9822;BME280;4950;46.042;14.472;2023-03-18T12:42:28;97900.56;;;19.46;28.08
9822;BME280;4950;46.042;14.472;2023-03-18T12:44:58;97898.75;;;19.11;28.18
9822;BME280;4950;46.042;14.472;2023-03-18T12:47:30;97896.94;;;19.00;28.43
9822;BME280;4950;46.042;14.472;2023-03-18T12:50:02;97886.50;;;19.29;28.61
9822;BME280;4950;46.042;14.472;2023-03-18T12:52:36;97889.25;;;19.46;28.06
9822;BME280;4950;46.042;14.472;2023-03-18T12:55:10;97881.34;;;19.46;28.32
9822;BME280;4950;46.042;14.472;2023-03-18T12:57:43;97886.03;;;19.56;27.41
9822;BME280;4950;46.042;14.472;2023-03-18T13:00:19;97882.38;;;19.45;27.69
9822;BME280;4950;46.042;14.472;2023-03-18T13:02:54;97886.16;;;19.61;27.53
9822;BME280;4950;46.042;14.472;2023-03-18T13:05:38;97892.09;;;19.56;27.30
9822;BME280;4950;46.042;14.472;2023-03-18T13:08:43;97889.00;;;19.59;27.47
9822;BME280;4950;46.042;14.472;2023-03-18T13:11:30;97884.53;;;19.60;27.39
9822;BME280;4950;46.042;14.472;2023-03-18T13:14:04;97887.00;;;19.90;27.22
9822;BME280;4950;46.042;14.472;2023-03-18T13:16:36;97880.63;;;20.15;26.39
9822;BME280;4950;46.042;14.472;2023-03-18T13:19:03;97885.66;;;20.16;26.57
9822;BME280;4950;46.042;14.472;2023-03-18T13:21:38;97877.13;;;20.26;26.32
9822;BME280;4950;46.042;14.472;2023-03-18T13:24:26;97881.63;;;19.85;26.52
9822;BME280;4950;46.042;14.472;2023-03-18T13:27:22;97874.75;;;20.41;26.73
9822;BME280;4950;46.042;14.472;2023-03-18T13:29:56;97875.84;;;20.91;25.50
9822;BME280;4950;46.042;14.472;2023-03-18T13:32:39;97867.78;;;20.98;25.10
9822;BME280;4950;46.042;14.472;2023-03-18T13:35:37;97873.94;;;21.03;24.77
9822;BME280;4950;46.042;14.472;2023-03-18T13:38:25;97871.13;;;20.93;25.04
9822;BME280;4950;46.042;14.472;2023-03-18T13:41:24;97865.16;;;21.20;25.35
9822;BME280;4950;46.042;14.472;2023-03-18T13:43:57;97875.19;;;21.57;24.31